KORS Airport Information

Runway Information
Runway 16 Length 2900 ft width 60 ft
Elevation 31 ft Threshold 0 ft Heading 0
Runway 34 Length 2900 ft Width 60 ft
Elevation 31 ft Threshold 0 ft Heading 0
Airport Frequencies
Airport Navaids
Airport Weather Information & NOTAM
ADDS - METARS form results

(2042 UTC 23 February 2019)
Data provider http://aviationweather.gov/metar/data/
 
METAR text: KORS 232035Z AUTO 14008G14KT 10SM BKN070 BKN080 06/02 A3009 RMK AO2
Conditions at: KORS (EASTSOUND/ORCAS , WA, US) observed 2035 UTC 23 February 2019
Temperature: 6.0°C (43°F)
Dewpoint: 2.0°C (36°F) [RH = 75%]
Pressure (altimeter): 30.09 inches Hg (1019.0 mb)
Winds: from the SE (140 degrees) at 9 MPH (8 knots; 4.1 m/s)
gusting to 16 MPH (14 knots; 7.2 m/s)
Visibility: 10 or more miles (16+ km)
Ceiling: 7000 feet AGL
Clouds: broken clouds at 7000 feet AGL
broken clouds at 8000 feet AGL
Weather: automated observation with no human augmentation;
there may or may not be significant weather present at this time

METAR text: KORS 232015Z AUTO 15008G15KT 9SM BKN075 06/02 A3009 RMK AO2
Conditions at: KORS (EASTSOUND/ORCAS , WA, US) observed 2015 UTC 23 February 2019
Temperature: 6.0°C (43°F)
Dewpoint: 2.0°C (36°F) [RH = 75%]
Pressure (altimeter): 30.09 inches Hg (1019.0 mb)
Winds: from the SSE (150 degrees) at 9 MPH (8 knots; 4.1 m/s)
gusting to 17 MPH (15 knots; 7.7 m/s)
Visibility: 9 miles (14 km)
Ceiling: 7500 feet AGL
Clouds: broken clouds at 7500 feet AGL
Weather: automated observation with no human augmentation;
there may or may not be significant weather present at this time

METAR text: KORS 231955Z AUTO 15010KT 9SM BKN070 06/03 A3009 RMK AO2
Conditions at: KORS (EASTSOUND/ORCAS , WA, US) observed 1955 UTC 23 February 2019
Temperature: 6.0°C (43°F)
Dewpoint: 3.0°C (37°F) [RH = 81%]
Pressure (altimeter): 30.09 inches Hg (1019.0 mb)
Winds: from the SSE (150 degrees) at 12 MPH (10 knots; 5.1 m/s)
Visibility: 9 miles (14 km)
Ceiling: 7000 feet AGL
Clouds: broken clouds at 7000 feet AGL
Weather: automated observation with no human augmentation;
there may or may not be significant weather present at this time